sensor_id;sensor_type;location;lat;lon;timestamp;P1;durP1;ratioP1;P2;durP2;ratioP2
30539;SDS011;17321;46.312;4.776;2022-12-24T00:02:05;0.77;;;0.60;;
30539;SDS011;17321;46.312;4.776;2022-12-24T00:04:31;2.15;;;0.60;;
30539;SDS011;17321;46.312;4.776;2022-12-24T00:06:57;3.47;;;1.45;;
30539;SDS011;17321;46.312;4.776;2022-12-24T00:09:23;3.50;;;1.83;;
30539;SDS011;17321;46.312;4.776;2022-12-24T00:11:49;8.70;;;3.08;;
30539;SDS011;17321;46.312;4.776;2022-12-24T00:14:15;8.77;;;4.65;;
30539;SDS011;17321;46.312;4.776;2022-12-24T00:16:41;8.85;;;5.03;;
30539;SDS011;17321;46.312;4.776;2022-12-24T00:19:08;9.90;;;5.13;;
30539;SDS011;17321;46.312;4.776;2022-12-24T00:21:34;9.45;;;5.15;;
30539;SDS011;17321;46.312;4.776;2022-12-24T00:24:00;12.05;;;5.55;;
30539;SDS011;17321;46.312;4.776;2022-12-24T00:26:28;14.02;;;6.00;;
30539;SDS011;17321;46.312;4.776;2022-12-24T00:28:54;10.65;;;5.13;;
30539;SDS011;17321;46.312;4.776;2022-12-24T00:31:20;7.95;;;4.30;;
30539;SDS011;17321;46.312;4.776;2022-12-24T00:33:46;7.07;;;3.80;;
30539;SDS011;17321;46.312;4.776;2022-12-24T00:36:13;10.98;;;5.20;;
30539;SDS011;17321;46.312;4.776;2022-12-24T00:38:39;9.18;;;4.28;;
30539;SDS011;17321;46.312;4.776;2022-12-24T00:41:05;12.70;;;5.00;;
30539;SDS011;17321;46.312;4.776;2022-12-24T00:43:58;7.60;;;4.10;;
30539;SDS011;17321;46.312;4.776;2022-12-24T00:46:24;12.80;;;3.80;;
30539;SDS011;17321;46.312;4.776;2022-12-24T00:48:51;8.98;;;4.55;;
30539;SDS011;17321;46.312;4.776;2022-12-24T00:51:17;13.35;;;8.20;;
30539;SDS011;17321;46.312;4.776;2022-12-24T00:53:43;11.52;;;7.43;;
30539;SDS011;17321;46.312;4.776;2022-12-24T00:56:09;10.30;;;6.72;;
30539;SDS011;17321;46.312;4.776;2022-12-24T00:58:36;9.93;;;7.15;;
30539;SDS011;17321;46.312;4.776;2022-12-24T01:01:02;10.38;;;6.47;;
30539;SDS011;17321;46.312;4.776;2022-12-24T01:03:28;7.90;;;5.57;;
30539;SDS011;17321;46.312;4.776;2022-12-24T01:06:05;11.02;;;5.72;;
30539;SDS011;17321;46.312;4.776;2022-12-24T01:08:31;9.95;;;5.68;;
30539;SDS011;17321;46.312;4.776;2022-12-24T01:10:58;10.50;;;6.13;;
30539;SDS011;17321;46.312;4.776;2022-12-24T01:13:24;17.35;;;6.22;;
30539;SDS011;17321;46.312;4.776;2022-12-24T01:15:50;12.48;;;5.72;;
30539;SDS011;17321;46.312;4.776;2022-12-24T01:18:17;10.32;;;6.00;;
30539;SDS011;17321;46.312;4.776;2022-12-24T01:20:43;11.20;;;6.75;;
30539;SDS011;17321;46.312;4.776;2022-12-24T01:23:09;11.80;;;6.43;;
30539;SDS011;17321;46.312;4.776;2022-12-24T01:25:38;10.25;;;6.38;;
30539;SDS011;17321;46.312;4.776;2022-12-24T01:28:07;13.50;;;7.65;;
30539;SDS011;17321;46.312;4.776;2022-12-24T01:30:33;10.68;;;7.15;;
30539;SDS011;17321;46.312;4.776;2022-12-24T01:32:59;13.18;;;7.88;;
30539;SDS011;17321;46.312;4.776;2022-12-24T01:35:25;12.50;;;7.75;;
30539;SDS011;17321;46.312;4.776;2022-12-24T01:37:51;10.02;;;6.65;;
30539;SDS011;17321;46.312;4.776;2022-12-24T01:40:17;12.02;;;7.60;;
30539;SDS011;17321;46.312;4.776;2022-12-24T01:43:02;12.57;;;8.13;;
30539;SDS011;17321;46.312;4.776;2022-12-24T01:45:50;16.70;;;7.03;;
30539;SDS011;17321;46.312;4.776;2022-12-24T01:50:50;12.90;;;7.82;;
30539;SDS011;17321;46.312;4.776;2022-12-24T01:53:19;10.75;;;7.03;;
30539;SDS011;17321;46.312;4.776;2022-12-24T01:55:45;14.35;;;7.15;;
30539;SDS011;17321;46.312;4.776;2022-12-24T01:58:12;7.03;;;4.88;;
30539;SDS011;17321;46.312;4.776;2022-12-24T02:00:38;9.20;;;5.20;;
30539;SDS011;17321;46.312;4.776;2022-12-24T02:03:05;12.40;;;5.28;;
30539;SDS011;17321;46.312;4.776;2022-12-24T02:08:04;10.73;;;5.72;;
30539;SDS011;17321;46.312;4.776;2022-12-24T02:10:31;9.15;;;6.05;;
30539;SDS011;17321;46.312;4.776;2022-12-24T02:12:57;10.65;;;6.03;;
30539;SDS011;17321;46.312;4.776;2022-12-24T02:15:24;13.27;;;6.80;;
30539;SDS011;17321;46.312;4.776;2022-12-24T02:20:47;22.05;;;8.10;;
30539;SDS011;17321;46.312;4.776;2022-12-24T02:31:00;11.60;;;7.25;;
30539;SDS011;17321;46.312;4.776;2022-12-24T02:33:35;17.23;;;7.05;;
30539;SDS011;17321;46.312;4.776;2022-12-24T02:36:05;10.20;;;6.05;;
30539;SDS011;17321;46.312;4.776;2022-12-24T02:41:06;13.85;;;6.88;;
30539;SDS011;17321;46.312;4.776;2022-12-24T02:43:37;15.00;;;5.95;;
30539;SDS011;17321;46.312;4.776;2022-12-24T02:46:09;11.00;;;5.90;;
30539;SDS011;17321;46.312;4.776;2022-12-24T02:48:36;17.30;;;7.28;;
30539;SDS011;17321;46.312;4.776;2022-12-24T02:51:06;11.48;;;6.07;;
30539;SDS011;17321;46.312;4.776;2022-12-24T02:53:33;13.60;;;7.20;;
30539;SDS011;17321;46.312;4.776;2022-12-24T03:01:29;10.85;;;7.93;;
30539;SDS011;17321;46.312;4.776;2022-12-24T03:06:31;11.82;;;7.47;;
30539;SDS011;17321;46.312;4.776;2022-12-24T03:09:12;16.98;;;9.85;;
30539;SDS011;17321;46.312;4.776;2022-12-24T03:11:41;11.93;;;8.23;;
30539;SDS011;17321;46.312;4.776;2022-12-24T03:14:09;12.13;;;7.90;;
30539;SDS011;17321;46.312;4.776;2022-12-24T03:16:35;15.38;;;7.35;;
30539;SDS011;17321;46.312;4.776;2022-12-24T03:19:01;13.30;;;7.22;;
30539;SDS011;17321;46.312;4.776;2022-12-24T03:21:30;11.15;;;7.45;;
30539;SDS011;17321;46.312;4.776;2022-12-24T03:23:57;11.00;;;7.25;;
30539;SDS011;17321;46.312;4.776;2022-12-24T03:26:23;13.40;;;9.43;;
30539;SDS011;17321;46.312;4.776;2022-12-24T03:28:50;10.60;;;7.20;;
30539;SDS011;17321;46.312;4.776;2022-12-24T03:31:16;14.95;;;9.23;;
30539;SDS011;17321;46.312;4.776;2022-12-24T03:33:43;12.35;;;8.25;;
30539;SDS011;17321;46.312;4.776;2022-12-24T03:36:09;11.52;;;7.45;;
30539;SDS011;17321;46.312;4.776;2022-12-24T03:38:35;12.48;;;7.28;;
30539;SDS011;17321;46.312;4.776;2022-12-24T03:41:02;10.40;;;7.10;;
30539;SDS011;17321;46.312;4.776;2022-12-24T03:43:28;16.27;;;8.55;;
30539;SDS011;17321;46.312;4.776;2022-12-24T03:45:54;13.80;;;6.47;;
30539;SDS011;17321;46.312;4.776;2022-12-24T03:48:20;15.45;;;6.95;;
30539;SDS011;17321;46.312;4.776;2022-12-24T03:50:46;14.77;;;8.20;;
30539;SDS011;17321;46.312;4.776;2022-12-24T03:53:12;15.32;;;9.13;;
30539;SDS011;17321;46.312;4.776;2022-12-24T03:55:39;13.77;;;8.65;;
30539;SDS011;17321;46.312;4.776;2022-12-24T03:58:05;9.88;;;5.13;;
30539;SDS011;17321;46.312;4.776;2022-12-24T04:00:31;10.90;;;5.38;;
30539;SDS011;17321;46.312;4.776;2022-12-24T04:03:00;8.60;;;5.07;;
30539;SDS011;17321;46.312;4.776;2022-12-24T04:05:26;7.80;;;3.58;;
30539;SDS011;17321;46.312;4.776;2022-12-24T04:07:52;9.90;;;3.83;;
30539;SDS011;17321;46.312;4.776;2022-12-24T04:10:18;10.23;;;4.30;;
30539;SDS011;17321;46.312;4.776;2022-12-24T04:12:44;11.15;;;4.45;;
30539;SDS011;17321;46.312;4.776;2022-12-24T04:15:10;6.30;;;2.88;;
30539;SDS011;17321;46.312;4.776;2022-12-24T04:17:36;11.10;;;3.10;;
30539;SDS011;17321;46.312;4.776;2022-12-24T04:20:03;5.20;;;1.95;;
30539;SDS011;17321;46.312;4.776;2022-12-24T04:22:29;9.40;;;2.35;;
30539;SDS011;17321;46.312;4.776;2022-12-24T04:24:56;6.47;;;2.13;;
30539;SDS011;17321;46.312;4.776;2022-12-24T04:27:22;3.55;;;1.88;;
30539;SDS011;17321;46.312;4.776;2022-12-24T04:29:48;9.68;;;2.58;;
30539;SDS011;17321;46.312;4.776;2022-12-24T04:32:15;7.28;;;2.53;;
30539;SDS011;17321;46.312;4.776;2022-12-24T04:34:41;5.47;;;2.88;;
30539;SDS011;17321;46.312;4.776;2022-12-24T04:37:07;5.65;;;2.25;;
30539;SDS011;17321;46.312;4.776;2022-12-24T04:39:33;8.93;;;2.40;;
30539;SDS011;17321;46.312;4.776;2022-12-24T04:42:01;3.57;;;1.77;;
30539;SDS011;17321;46.312;4.776;2022-12-24T04:44:27;6.50;;;2.50;;
30539;SDS011;17321;46.312;4.776;2022-12-24T04:46:53;5.45;;;2.28;;
30539;SDS011;17321;46.312;4.776;2022-12-24T04:49:20;5.68;;;2.15;;
30539;SDS011;17321;46.312;4.776;2022-12-24T04:51:46;5.47;;;2.25;;
30539;SDS011;17321;46.312;4.776;2022-12-24T04:54:12;6.30;;;1.40;;
30539;SDS011;17321;46.312;4.776;2022-12-24T04:56:38;8.27;;;2.10;;
30539;SDS011;17321;46.312;4.776;2022-12-24T04:59:04;8.02;;;2.03;;
30539;SDS011;17321;46.312;4.776;2022-12-24T05:01:31;6.28;;;2.22;;
30539;SDS011;17321;46.312;4.776;2022-12-24T05:03:57;4.70;;;1.73;;
30539;SDS011;17321;46.312;4.776;2022-12-24T05:06:25;4.38;;;2.08;;
30539;SDS011;17321;46.312;4.776;2022-12-24T05:08:55;7.50;;;2.10;;
30539;SDS011;17321;46.312;4.776;2022-12-24T05:11:21;6.47;;;1.88;;
30539;SDS011;17321;46.312;4.776;2022-12-24T05:13:47;4.28;;;1.33;;
30539;SDS011;17321;46.312;4.776;2022-12-24T05:16:18;9.20;;;1.77;;
30539;SDS011;17321;46.312;4.776;2022-12-24T05:18:44;6.10;;;1.92;;
30539;SDS011;17321;46.312;4.776;2022-12-24T05:21:14;4.75;;;1.67;;
30539;SDS011;17321;46.312;4.776;2022-12-24T05:23:41;7.70;;;1.13;;
30539;SDS011;17321;46.312;4.776;2022-12-24T05:28:57;7.38;;;1.40;;
30539;SDS011;17321;46.312;4.776;2022-12-24T05:31:23;8.20;;;1.30;;
30539;SDS011;17321;46.312;4.776;2022-12-24T05:33:50;6.72;;;1.80;;
30539;SDS011;17321;46.312;4.776;2022-12-24T05:36:18;4.45;;;1.35;;
30539;SDS011;17321;46.312;4.776;2022-12-24T05:38:44;4.70;;;1.10;;
30539;SDS011;17321;46.312;4.776;2022-12-24T05:41:10;6.20;;;1.10;;
30539;SDS011;17321;46.312;4.776;2022-12-24T05:43:36;5.13;;;1.17;;
30539;SDS011;17321;46.312;4.776;2022-12-24T05:46:05;6.75;;;1.33;;
30539;SDS011;17321;46.312;4.776;2022-12-24T05:48:31;4.37;;;0.90;;
30539;SDS011;17321;46.312;4.776;2022-12-24T05:50:57;3.88;;;0.90;;
30539;SDS011;17321;46.312;4.776;2022-12-24T05:53:24;5.80;;;1.13;;
30539;SDS011;17321;46.312;4.776;2022-12-24T05:55:50;4.15;;;1.30;;
30539;SDS011;17321;46.312;4.776;2022-12-24T05:58:16;3.67;;;1.27;;
30539;SDS011;17321;46.312;4.776;2022-12-24T06:00:42;3.28;;;1.40;;
30539;SDS011;17321;46.312;4.776;2022-12-24T06:03:08;8.82;;;1.27;;
30539;SDS011;17321;46.312;4.776;2022-12-24T06:05:34;5.47;;;1.40;;
30539;SDS011;17321;46.312;4.776;2022-12-24T06:08:01;3.83;;;1.10;;
30539;SDS011;17321;46.312;4.776;2022-12-24T06:10:27;6.10;;;1.30;;
30539;SDS011;17321;46.312;4.776;2022-12-24T06:12:54;12.65;;;2.03;;
30539;SDS011;17321;46.312;4.776;2022-12-24T06:15:20;9.65;;;1.88;;
30539;SDS011;17321;46.312;4.776;2022-12-24T06:17:46;9.52;;;2.45;;
30539;SDS011;17321;46.312;4.776;2022-12-24T06:20:12;12.25;;;2.78;;
30539;SDS011;17321;46.312;4.776;2022-12-24T06:22:38;5.38;;;1.67;;
30539;SDS011;17321;46.312;4.776;2022-12-24T06:25:04;10.50;;;1.88;;
30539;SDS011;17321;46.312;4.776;2022-12-24T06:27:31;4.85;;;1.42;;
30539;SDS011;17321;46.312;4.776;2022-12-24T06:29:57;9.07;;;1.92;;
30539;SDS011;17321;46.312;4.776;2022-12-24T06:32:23;10.93;;;2.85;;
30539;SDS011;17321;46.312;4.776;2022-12-24T06:34:49;7.22;;;1.75;;
30539;SDS011;17321;46.312;4.776;2022-12-24T06:37:15;9.60;;;1.90;;
30539;SDS011;17321;46.312;4.776;2022-12-24T06:39:45;6.38;;;1.75;;
30539;SDS011;17321;46.312;4.776;2022-12-24T06:42:12;8.90;;;1.60;;
30539;SDS011;17321;46.312;4.776;2022-12-24T06:44:38;5.10;;;1.95;;
30539;SDS011;17321;46.312;4.776;2022-12-24T06:47:04;7.22;;;2.00;;
30539;SDS011;17321;46.312;4.776;2022-12-24T06:49:30;8.38;;;1.90;;
30539;SDS011;17321;46.312;4.776;2022-12-24T06:51:56;6.93;;;1.80;;
30539;SDS011;17321;46.312;4.776;2022-12-24T06:54:22;9.07;;;1.75;;
30539;SDS011;17321;46.312;4.776;2022-12-24T06:56:48;15.05;;;1.77;;
30539;SDS011;17321;46.312;4.776;2022-12-24T06:59:15;13.82;;;2.55;;
30539;SDS011;17321;46.312;4.776;2022-12-24T07:01:41;10.65;;;2.05;;
30539;SDS011;17321;46.312;4.776;2022-12-24T07:04:07;7.45;;;2.17;;
30539;SDS011;17321;46.312;4.776;2022-12-24T07:06:33;11.48;;;2.33;;
30539;SDS011;17321;46.312;4.776;2022-12-24T07:08:59;8.40;;;2.03;;
30539;SDS011;17321;46.312;4.776;2022-12-24T07:11:25;11.50;;;2.20;;
30539;SDS011;17321;46.312;4.776;2022-12-24T07:13:51;14.68;;;2.15;;
30539;SDS011;17321;46.312;4.776;2022-12-24T07:16:18;7.88;;;1.63;;
30539;SDS011;17321;46.312;4.776;2022-12-24T07:18:44;10.52;;;2.95;;
30539;SDS011;17321;46.312;4.776;2022-12-24T07:21:10;13.43;;;3.42;;
30539;SDS011;17321;46.312;4.776;2022-12-24T07:23:36;6.72;;;1.88;;
30539;SDS011;17321;46.312;4.776;2022-12-24T07:26:03;10.68;;;2.58;;
30539;SDS011;17321;46.312;4.776;2022-12-24T07:28:30;8.55;;;2.45;;
30539;SDS011;17321;46.312;4.776;2022-12-24T07:30:56;11.55;;;2.47;;
30539;SDS011;17321;46.312;4.776;2022-12-24T07:33:23;8.73;;;2.55;;
30539;SDS011;17321;46.312;4.776;2022-12-24T07:35:59;8.95;;;2.45;;
30539;SDS011;17321;46.312;4.776;2022-12-24T07:38:26;18.63;;;2.95;;
30539;SDS011;17321;46.312;4.776;2022-12-24T07:40:52;20.42;;;2.60;;
30539;SDS011;17321;46.312;4.776;2022-12-24T07:43:18;9.45;;;2.03;;
30539;SDS011;17321;46.312;4.776;2022-12-24T07:45:44;11.80;;;2.65;;
30539;SDS011;17321;46.312;4.776;2022-12-24T07:48:10;8.63;;;2.10;;
30539;SDS011;17321;46.312;4.776;2022-12-24T07:50:36;5.97;;;2.28;;
30539;SDS011;17321;46.312;4.776;2022-12-24T07:53:03;10.27;;;2.38;;
30539;SDS011;17321;46.312;4.776;2022-12-24T07:55:29;9.10;;;2.40;;
30539;SDS011;17321;46.312;4.776;2022-12-24T07:57:55;11.57;;;2.60;;
30539;SDS011;17321;46.312;4.776;2022-12-24T08:00:23;10.05;;;2.55;;
30539;SDS011;17321;46.312;4.776;2022-12-24T08:02:50;9.65;;;2.13;;
30539;SDS011;17321;46.312;4.776;2022-12-24T08:05:16;8.43;;;2.88;;
30539;SDS011;17321;46.312;4.776;2022-12-24T08:07:42;15.18;;;3.70;;
30539;SDS011;17321;46.312;4.776;2022-12-24T08:10:08;10.68;;;3.17;;
30539;SDS011;17321;46.312;4.776;2022-12-24T08:12:34;9.88;;;2.60;;
30539;SDS011;17321;46.312;4.776;2022-12-24T08:15:00;9.63;;;3.03;;
30539;SDS011;17321;46.312;4.776;2022-12-24T08:17:26;7.13;;;2.53;;
30539;SDS011;17321;46.312;4.776;2022-12-24T08:19:53;5.03;;;1.85;;
30539;SDS011;17321;46.312;4.776;2022-12-24T08:22:19;10.75;;;2.50;;
30539;SDS011;17321;46.312;4.776;2022-12-24T08:24:45;9.30;;;2.67;;
30539;SDS011;17321;46.312;4.776;2022-12-24T08:27:11;10.32;;;2.83;;
30539;SDS011;17321;46.312;4.776;2022-12-24T08:29:37;12.25;;;3.13;;
30539;SDS011;17321;46.312;4.776;2022-12-24T08:32:03;10.90;;;2.70;;
30539;SDS011;17321;46.312;4.776;2022-12-24T08:34:29;8.30;;;2.15;;
30539;SDS011;17321;46.312;4.776;2022-12-24T08:36:56;10.85;;;2.53;;
30539;SDS011;17321;46.312;4.776;2022-12-24T08:39:22;10.95;;;2.60;;
30539;SDS011;17321;46.312;4.776;2022-12-24T08:41:49;11.60;;;2.00;;
30539;SDS011;17321;46.312;4.776;2022-12-24T08:44:15;12.25;;;2.03;;
30539;SDS011;17321;46.312;4.776;2022-12-24T08:46:41;13.23;;;2.70;;
30539;SDS011;17321;46.312;4.776;2022-12-24T08:49:07;12.02;;;2.50;;
30539;SDS011;17321;46.312;4.776;2022-12-24T08:51:33;12.35;;;3.67;;
30539;SDS011;17321;46.312;4.776;2022-12-24T08:53:59;10.45;;;3.78;;
30539;SDS011;17321;46.312;4.776;2022-12-24T08:56:26;12.23;;;3.58;;
30539;SDS011;17321;46.312;4.776;2022-12-24T08:58:52;10.75;;;3.30;;
30539;SDS011;17321;46.312;4.776;2022-12-24T09:01:19;11.52;;;2.95;;
30539;SDS011;17321;46.312;4.776;2022-12-24T09:03:45;12.00;;;4.10;;
30539;SDS011;17321;46.312;4.776;2022-12-24T09:06:12;15.15;;;4.40;;
30539;SDS011;17321;46.312;4.776;2022-12-24T09:11:14;14.82;;;3.53;;
30539;SDS011;17321;46.312;4.776;2022-12-24T09:13:41;11.90;;;2.83;;
30539;SDS011;17321;46.312;4.776;2022-12-24T09:16:08;16.08;;;3.75;;
30539;SDS011;17321;46.312;4.776;2022-12-24T09:18:35;15.48;;;4.68;;
30539;SDS011;17321;46.312;4.776;2022-12-24T09:21:06;14.68;;;4.15;;
30539;SDS011;17321;46.312;4.776;2022-12-24T09:23:36;8.65;;;3.55;;
30539;SDS011;17321;46.312;4.776;2022-12-24T09:26:08;14.70;;;3.88;;
30539;SDS011;17321;46.312;4.776;2022-12-24T09:28:35;18.80;;;3.70;;
30539;SDS011;17321;46.312;4.776;2022-12-24T09:31:02;11.95;;;3.70;;
30539;SDS011;17321;46.312;4.776;2022-12-24T09:33:30;15.52;;;3.65;;
30539;SDS011;17321;46.312;4.776;2022-12-24T09:35:56;9.40;;;2.80;;
30539;SDS011;17321;46.312;4.776;2022-12-24T09:38:23;14.13;;;2.92;;
30539;SDS011;17321;46.312;4.776;2022-12-24T09:40:50;17.55;;;3.63;;
30539;SDS011;17321;46.312;4.776;2022-12-24T09:43:20;12.30;;;3.08;;
30539;SDS011;17321;46.312;4.776;2022-12-24T09:45:54;9.85;;;3.20;;
30539;SDS011;17321;46.312;4.776;2022-12-24T09:48:27;16.48;;;4.45;;
30539;SDS011;17321;46.312;4.776;2022-12-24T09:51:06;15.38;;;4.47;;
30539;SDS011;17321;46.312;4.776;2022-12-24T09:53:43;15.40;;;4.20;;
30539;SDS011;17321;46.312;4.776;2022-12-24T09:56:23;10.40;;;4.80;;
30539;SDS011;17321;46.312;4.776;2022-12-24T10:01:20;11.15;;;3.40;;
30539;SDS011;17321;46.312;4.776;2022-12-24T10:03:46;14.23;;;4.25;;
30539;SDS011;17321;46.312;4.776;2022-12-24T10:06:17;13.60;;;4.07;;
30539;SDS011;17321;46.312;4.776;2022-12-24T10:09:04;9.60;;;3.47;;
30539;SDS011;17321;46.312;4.776;2022-12-24T10:19:23;9.63;;;3.92;;
30539;SDS011;17321;46.312;4.776;2022-12-24T10:24:52;12.98;;;3.47;;
30539;SDS011;17321;46.312;4.776;2022-12-24T10:27:10;17.52;;;4.75;;
30539;SDS011;17321;46.312;4.776;2022-12-24T10:29:42;17.15;;;4.43;;
30539;SDS011;17321;46.312;4.776;2022-12-24T10:32:14;12.07;;;3.85;;
30539;SDS011;17321;46.312;4.776;2022-12-24T10:34:45;7.45;;;3.67;;
30539;SDS011;17321;46.312;4.776;2022-12-24T10:37:16;12.32;;;3.95;;
30539;SDS011;17321;46.312;4.776;2022-12-24T10:39:43;8.15;;;3.92;;
30539;SDS011;17321;46.312;4.776;2022-12-24T10:42:09;11.73;;;3.72;;
30539;SDS011;17321;46.312;4.776;2022-12-24T10:44:37;13.43;;;4.55;;
30539;SDS011;17321;46.312;4.776;2022-12-24T10:47:03;7.32;;;3.42;;
30539;SDS011;17321;46.312;4.776;2022-12-24T10:52:05;16.40;;;3.80;;
30539;SDS011;17321;46.312;4.776;2022-12-24T10:54:34;9.57;;;3.05;;
30539;SDS011;17321;46.312;4.776;2022-12-24T10:57:04;12.98;;;4.40;;
30539;SDS011;17321;46.312;4.776;2022-12-24T10:59:50;8.75;;;3.45;;
30539;SDS011;17321;46.312;4.776;2022-12-24T11:02:28;13.73;;;4.28;;
30539;SDS011;17321;46.312;4.776;2022-12-24T11:04:55;10.15;;;3.92;;
30539;SDS011;17321;46.312;4.776;2022-12-24T11:07:23;14.98;;;4.43;;
30539;SDS011;17321;46.312;4.776;2022-12-24T11:09:56;17.50;;;5.07;;
30539;SDS011;17321;46.312;4.776;2022-12-24T11:12:30;13.38;;;4.45;;
30539;SDS011;17321;46.312;4.776;2022-12-24T11:17:29;12.13;;;4.40;;
30539;SDS011;17321;46.312;4.776;2022-12-24T11:19:55;13.93;;;5.20;;
30539;SDS011;17321;46.312;4.776;2022-12-24T11:22:28;10.68;;;5.22;;
30539;SDS011;17321;46.312;4.776;2022-12-24T11:25:17;16.15;;;5.60;;
30539;SDS011;17321;46.312;4.776;2022-12-24T11:27:46;13.25;;;5.60;;
30539;SDS011;17321;46.312;4.776;2022-12-24T11:32:41;13.43;;;5.28;;
30539;SDS011;17321;46.312;4.776;2022-12-24T11:35:15;11.82;;;4.55;;
30539;SDS011;17321;46.312;4.776;2022-12-24T11:37:41;19.92;;;6.05;;
30539;SDS011;17321;46.312;4.776;2022-12-24T11:40:17;14.32;;;5.00;;
30539;SDS011;17321;46.312;4.776;2022-12-24T11:42:44;13.02;;;4.75;;
30539;SDS011;17321;46.312;4.776;2022-12-24T11:47:39;11.05;;;4.25;;
30539;SDS011;17321;46.312;4.776;2022-12-24T11:50:25;8.45;;;3.92;;
30539;SDS011;17321;46.312;4.776;2022-12-24T11:53:01;13.52;;;4.82;;
30539;SDS011;17321;46.312;4.776;2022-12-24T11:55:46;14.50;;;4.18;;
30539;SDS011;17321;46.312;4.776;2022-12-24T11:58:15;9.38;;;3.83;;
30539;SDS011;17321;46.312;4.776;2022-12-24T12:00:43;9.50;;;3.35;;
30539;SDS011;17321;46.312;4.776;2022-12-24T12:03:32;10.48;;;3.35;;
30539;SDS011;17321;46.312;4.776;2022-12-24T12:05:58;12.23;;;4.25;;
30539;SDS011;17321;46.312;4.776;2022-12-24T12:08:25;6.10;;;3.42;;
30539;SDS011;17321;46.312;4.776;2022-12-24T12:10:52;7.28;;;3.35;;
30539;SDS011;17321;46.312;4.776;2022-12-24T12:13:21;12.40;;;3.55;;
30539;SDS011;17321;46.312;4.776;2022-12-24T12:18:14;10.18;;;3.40;;
30539;SDS011;17321;46.312;4.776;2022-12-24T12:20:45;7.53;;;3.05;;
30539;SDS011;17321;46.312;4.776;2022-12-24T12:23:13;11.18;;;3.50;;
30539;SDS011;17321;46.312;4.776;2022-12-24T12:26:03;10.27;;;3.08;;
30539;SDS011;17321;46.312;4.776;2022-12-24T12:31:25;10.32;;;2.72;;
30539;SDS011;17321;46.312;4.776;2022-12-24T12:36:42;5.57;;;2.88;;
30539;SDS011;17321;46.312;4.776;2022-12-24T12:39:12;7.07;;;3.05;;
30539;SDS011;17321;46.312;4.776;2022-12-24T12:57:00;12.88;;;3.47;;
30539;SDS011;17321;46.312;4.776;2022-12-24T12:59:30;11.70;;;3.72;;
30539;SDS011;17321;46.312;4.776;2022-12-24T13:18:36;8.13;;;2.90;;
30539;SDS011;17321;46.312;4.776;2022-12-24T13:21:11;10.10;;;3.55;;
30539;SDS011;17321;46.312;4.776;2022-12-24T13:23:38;9.20;;;3.75;;
30539;SDS011;17321;46.312;4.776;2022-12-24T13:26:08;10.73;;;3.33;;
30539;SDS011;17321;46.312;4.776;2022-12-24T13:28:36;16.35;;;5.32;;
30539;SDS011;17321;46.312;4.776;2022-12-24T13:33:45;10.65;;;3.67;;
30539;SDS011;17321;46.312;4.776;2022-12-24T13:36:15;10.70;;;3.88;;
30539;SDS011;17321;46.312;4.776;2022-12-24T13:38:43;12.75;;;4.10;;
30539;SDS011;17321;46.312;4.776;2022-12-24T13:46:46;8.15;;;3.42;;
30539;SDS011;17321;46.312;4.776;2022-12-24T13:49:26;8.25;;;2.85;;
30539;SDS011;17321;46.312;4.776;2022-12-24T13:52:05;8.20;;;2.78;;
30539;SDS011;17321;46.312;4.776;2022-12-24T13:54:32;7.43;;;3.42;;
30539;SDS011;17321;46.312;4.776;2022-12-24T13:56:58;12.52;;;3.70;;
30539;SDS011;17321;46.312;4.776;2022-12-24T14:01:51;11.38;;;3.47;;
30539;SDS011;17321;46.312;4.776;2022-12-24T14:04:27;9.68;;;3.40;;
30539;SDS011;17321;46.312;4.776;2022-12-24T14:06:56;10.77;;;3.08;;
30539;SDS011;17321;46.312;4.776;2022-12-24T14:09:23;8.52;;;3.15;;
30539;SDS011;17321;46.312;4.776;2022-12-24T14:14:32;11.13;;;3.63;;
30539;SDS011;17321;46.312;4.776;2022-12-24T14:17:00;10.75;;;3.97;;
30539;SDS011;17321;46.312;4.776;2022-12-24T14:19:40;8.95;;;3.33;;
30539;SDS011;17321;46.312;4.776;2022-12-24T14:22:18;15.73;;;3.80;;
30539;SDS011;17321;46.312;4.776;2022-12-24T14:24:48;9.88;;;3.40;;
30539;SDS011;17321;46.312;4.776;2022-12-24T14:27:17;12.45;;;4.35;;
30539;SDS011;17321;46.312;4.776;2022-12-24T14:29:51;9.95;;;3.95;;
30539;SDS011;17321;46.312;4.776;2022-12-24T14:32:18;10.90;;;3.80;;
30539;SDS011;17321;46.312;4.776;2022-12-24T14:34:44;11.48;;;4.45;;
30539;SDS011;17321;46.312;4.776;2022-12-24T14:37:11;15.05;;;3.88;;
30539;SDS011;17321;46.312;4.776;2022-12-24T14:39:39;8.98;;;4.40;;
30539;SDS011;17321;46.312;4.776;2022-12-24T14:42:19;18.80;;;5.17;;
30539;SDS011;17321;46.312;4.776;2022-12-24T14:54:59;18.60;;;5.32;;
30539;SDS011;17321;46.312;4.776;2022-12-24T14:57:25;22.20;;;5.40;;
30539;SDS011;17321;46.312;4.776;2022-12-24T14:59:55;10.98;;;4.55;;
30539;SDS011;17321;46.312;4.776;2022-12-24T15:07:33;11.15;;;4.63;;
30539;SDS011;17321;46.312;4.776;2022-12-24T15:10:01;12.60;;;4.55;;
30539;SDS011;17321;46.312;4.776;2022-12-24T15:12:28;16.00;;;5.72;;
30539;SDS011;17321;46.312;4.776;2022-12-24T15:14:55;15.43;;;4.55;;
30539;SDS011;17321;46.312;4.776;2022-12-24T15:17:24;9.10;;;3.65;;
30539;SDS011;17321;46.312;4.776;2022-12-24T15:19:50;15.18;;;4.32;;
30539;SDS011;17321;46.312;4.776;2022-12-24T15:22:28;15.05;;;4.18;;
30539;SDS011;17321;46.312;4.776;2022-12-24T15:24:54;14.05;;;4.85;;
30539;SDS011;17321;46.312;4.776;2022-12-24T15:27:22;11.90;;;4.70;;
30539;SDS011;17321;46.312;4.776;2022-12-24T15:29:49;14.20;;;5.40;;
30539;SDS011;17321;46.312;4.776;2022-12-24T15:32:16;15.18;;;5.43;;
30539;SDS011;17321;46.312;4.776;2022-12-24T15:34:46;22.00;;;5.90;;
30539;SDS011;17321;46.312;4.776;2022-12-24T15:39:39;11.68;;;4.85;;
30539;SDS011;17321;46.312;4.776;2022-12-24T15:42:09;18.48;;;5.60;;
30539;SDS011;17321;46.312;4.776;2022-12-24T15:44:40;17.02;;;5.13;;
30539;SDS011;17321;46.312;4.776;2022-12-24T15:47:14;8.75;;;3.58;;
30539;SDS011;17321;46.312;4.776;2022-12-24T15:49:42;16.10;;;5.38;;
30539;SDS011;17321;46.312;4.776;2022-12-24T15:52:09;14.30;;;4.72;;
30539;SDS011;17321;46.312;4.776;2022-12-24T15:54:36;12.77;;;4.38;;
30539;SDS011;17321;46.312;4.776;2022-12-24T15:57:41;12.38;;;3.95;;
30539;SDS011;17321;46.312;4.776;2022-12-24T16:00:00;13.77;;;4.63;;
30539;SDS011;17321;46.312;4.776;2022-12-24T16:02:31;12.27;;;3.80;;
30539;SDS011;17321;46.312;4.776;2022-12-24T16:07:58;14.77;;;4.13;;
30539;SDS011;17321;46.312;4.776;2022-12-24T16:10:35;14.43;;;4.80;;
30539;SDS011;17321;46.312;4.776;2022-12-24T16:13:09;12.40;;;5.13;;
30539;SDS011;17321;46.312;4.776;2022-12-24T16:15:40;12.27;;;4.18;;
30539;SDS011;17321;46.312;4.776;2022-12-24T16:18:13;18.88;;;3.95;;
30539;SDS011;17321;46.312;4.776;2022-12-24T16:20:44;15.13;;;4.57;;
30539;SDS011;17321;46.312;4.776;2022-12-24T16:23:15;18.45;;;5.00;;
30539;SDS011;17321;46.312;4.776;2022-12-24T16:25:41;11.70;;;4.85;;
30539;SDS011;17321;46.312;4.776;2022-12-24T16:28:10;12.77;;;4.80;;
30539;SDS011;17321;46.312;4.776;2022-12-24T16:30:36;17.70;;;5.25;;
30539;SDS011;17321;46.312;4.776;2022-12-24T16:33:02;14.48;;;5.07;;
30539;SDS011;17321;46.312;4.776;2022-12-24T16:35:30;22.75;;;5.95;;
30539;SDS011;17321;46.312;4.776;2022-12-24T16:38:01;17.13;;;5.22;;
30539;SDS011;17321;46.312;4.776;2022-12-24T16:40:27;15.20;;;4.95;;
30539;SDS011;17321;46.312;4.776;2022-12-24T16:42:56;15.32;;;4.63;;
30539;SDS011;17321;46.312;4.776;2022-12-24T16:45:41;13.82;;;4.70;;
30539;SDS011;17321;46.312;4.776;2022-12-24T16:48:07;16.05;;;4.78;;
30539;SDS011;17321;46.312;4.776;2022-12-24T16:50:34;17.95;;;4.93;;
30539;SDS011;17321;46.312;4.776;2022-12-24T16:53:00;14.50;;;4.75;;
30539;SDS011;17321;46.312;4.776;2022-12-24T16:55:26;8.75;;;4.30;;
30539;SDS011;17321;46.312;4.776;2022-12-24T16:57:53;11.82;;;4.28;;